createdAt,value
2018-08-02T00:01:48.145Z,23.60
2018-08-02T00:04:16.659Z,23.70
2018-08-02T00:06:45.218Z,23.80
2018-08-02T00:09:13.794Z,23.90
2018-08-02T00:11:42.369Z,23.90
2018-08-02T00:14:10.958Z,23.80
2018-08-02T00:16:39.481Z,23.90
2018-08-02T00:19:07.994Z,23.80
2018-08-02T00:21:36.543Z,23.70
2018-08-02T00:24:05.108Z,23.70
2018-08-02T00:26:33.959Z,23.80
2018-08-02T00:29:02.816Z,23.80
2018-08-02T00:31:31.318Z,23.80
2018-08-02T00:33:59.849Z,23.90
2018-08-02T00:36:28.402Z,23.90
2018-08-02T00:38:57.069Z,23.90
2018-08-02T00:41:25.594Z,23.50
2018-08-02T00:43:54.110Z,23.30
2018-08-02T00:46:22.636Z,23.10
2018-08-02T00:48:51.174Z,23.20
2018-08-02T00:51:19.677Z,23.20
2018-08-02T00:53:48.211Z,23.30
2018-08-02T00:56:16.747Z,23.40
2018-08-02T00:58:45.316Z,23.60
2018-08-02T01:01:13.949Z,23.60
2018-08-02T01:03:42.754Z,23.70
2018-08-02T01:06:11.353Z,23.70
2018-08-02T01:08:39.933Z,23.80
2018-08-02T01:11:08.463Z,23.70
2018-08-02T01:13:36.970Z,23.60
2018-08-02T01:16:05.564Z,23.60
2018-08-02T01:18:34.117Z,23.60
2018-08-02T01:21:02.626Z,23.70
2018-08-02T01:23:31.222Z,23.60
2018-08-02T01:25:59.740Z,23.50
2018-08-02T01:28:28.270Z,23.50
2018-08-02T01:30:56.794Z,23.50
2018-08-02T01:33:25.419Z,23.40
2018-08-02T01:35:53.950Z,23.40
2018-08-02T01:38:22.992Z,23.30
2018-08-02T01:40:51.486Z,22.00
2018-08-02T01:43:19.990Z,23.30
2018-08-02T01:45:48.503Z,23.40
2018-08-02T01:48:17.172Z,23.30
2018-08-02T01:50:45.665Z,23.30
2018-08-02T01:53:14.328Z,23.30
2018-08-02T01:55:42.899Z,23.30
2018-08-02T01:58:11.402Z,23.10
2018-08-02T02:00:39.910Z,23.00
2018-08-02T02:03:08.535Z,23.10
2018-08-02T02:05:37.083Z,23.20
2018-08-02T02:08:05.648Z,23.30
2018-08-02T02:10:34.121Z,23.30
2018-08-02T02:13:02.665Z,23.20
2018-08-02T02:15:31.293Z,23.20
2018-08-02T02:17:59.809Z,23.30
2018-08-02T02:20:28.329Z,23.30
2018-08-02T02:22:56.807Z,23.40
2018-08-02T02:25:25.336Z,23.50
2018-08-02T02:27:53.836Z,23.60
2018-08-02T02:30:22.367Z,23.60
2018-08-02T02:42:04.534Z,23.20
2018-08-02T02:44:33.086Z,23.10
2018-08-02T02:47:01.604Z,23.20
2018-08-02T02:49:30.211Z,23.30
2018-08-02T02:51:58.745Z,23.30
2018-08-02T02:54:27.259Z,23.40
2018-08-02T02:56:56.098Z,23.40
2018-08-02T02:59:24.774Z,23.50
2018-08-02T03:01:53.333Z,23.50
2018-08-02T03:04:21.858Z,23.30
2018-08-02T03:06:50.350Z,23.20
2018-08-02T03:09:21.047Z,23.30
2018-08-02T03:40:10.950Z,23.10
2018-08-02T03:59:59.990Z,22.90
2018-08-02T04:02:28.684Z,22.90
2018-08-02T04:04:57.404Z,22.60
2018-08-02T04:07:26.100Z,22.40
2018-08-02T04:09:54.982Z,22.50
2018-08-02T04:12:24.006Z,22.50
2018-08-02T04:14:53.029Z,22.60
2018-08-02T04:17:22.033Z,22.70
2018-08-02T04:20:04.576Z,22.80
2018-08-02T04:22:38.313Z,22.90
2018-08-02T04:25:08.163Z,23.00
2018-08-02T04:27:36.964Z,23.10
2018-08-02T04:30:22.150Z,23.10
2018-08-02T04:32:54.672Z,23.10
2018-08-02T04:35:28.390Z,23.10
2018-08-02T04:37:57.127Z,23.00
2018-08-02T04:40:26.001Z,23.00
2018-08-02T04:42:54.797Z,23.10
2018-08-02T04:45:23.941Z,23.00
2018-08-02T04:47:52.695Z,23.00
2018-08-02T04:50:21.761Z,23.10
2018-08-02T04:52:50.652Z,23.10
2018-08-02T04:55:19.466Z,23.10
2018-08-02T04:57:48.547Z,23.00
2018-08-02T05:00:17.400Z,23.00
2018-08-02T05:02:46.515Z,23.10
2018-08-02T05:05:23.612Z,23.10
2018-08-02T05:07:53.892Z,23.20
2018-08-02T05:10:22.991Z,23.30
2018-08-02T05:15:25.766Z,23.30
2018-08-02T05:17:55.927Z,23.30
2018-08-02T05:20:24.835Z,23.30
2018-08-02T05:22:53.569Z,23.30
2018-08-02T05:25:22.621Z,23.10
2018-08-02T05:27:51.361Z,23.00
2018-08-02T05:30:20.093Z,22.90
2018-08-02T05:32:48.895Z,22.90
2018-08-02T05:35:17.730Z,22.90
2018-08-02T05:37:46.505Z,22.80
2018-08-02T05:40:15.354Z,22.80
2018-08-02T05:42:44.170Z,22.60
2018-08-02T05:45:14.116Z,22.80
2018-08-02T05:47:42.853Z,23.10
2018-08-02T05:50:11.695Z,23.40
2018-08-02T05:52:40.481Z,23.60
2018-08-02T05:55:09.218Z,23.80
2018-08-02T05:57:37.987Z,23.80
2018-08-02T06:00:08.542Z,23.90
2018-08-02T06:02:42.711Z,23.60
2018-08-02T06:05:13.069Z,23.70
2018-08-02T06:07:42.970Z,23.90
2018-08-02T06:10:17.136Z,24.00
2018-08-02T06:12:46.508Z,23.80
2018-08-02T06:15:19.466Z,23.80
2018-08-02T06:17:54.146Z,23.90
2018-08-02T06:23:17.455Z,23.90
2018-08-02T06:25:47.184Z,24.00
2018-08-02T06:31:04.378Z,23.80
2018-08-02T06:36:21.002Z,24.10
2018-08-02T06:41:39.852Z,24.20
2018-08-02T06:44:09.283Z,24.00
2018-08-02T06:46:38.251Z,24.00
2018-08-02T06:49:08.922Z,24.20
2018-08-02T06:51:41.954Z,24.40
2018-08-02T06:54:11.513Z,24.50
2018-08-02T06:56:43.682Z,24.70
2018-08-02T07:01:59.658Z,24.90
2018-08-02T07:04:28.533Z,24.80
2018-08-02T07:06:57.842Z,24.80
2018-08-02T07:09:28.383Z,24.80
2018-08-02T07:12:14.688Z,24.80
2018-08-02T07:14:43.502Z,24.80
2018-08-02T07:17:12.362Z,24.90
2018-08-02T07:19:41.309Z,24.90
2018-08-02T07:24:57.038Z,25.10
2018-08-02T07:30:22.139Z,25.50
2018-08-02T07:32:51.658Z,25.40
2018-08-02T07:44:12.598Z,25.80
2018-08-02T07:55:04.062Z,26.10
2018-08-02T08:09:10.776Z,26.50
2018-08-02T08:45:12.183Z,27.10
2018-08-02T08:47:41.522Z,27.50
2018-08-02T08:50:12.656Z,27.40
2018-08-02T08:52:53.763Z,27.40
2018-08-02T08:55:24.351Z,27.60
2018-08-02T09:08:51.317Z,27.80
2018-08-02T09:11:21.884Z,28.00
2018-08-02T09:13:58.746Z,28.10
2018-08-02T09:16:28.248Z,28.20
2018-08-02T09:27:08.626Z,28.60
2018-08-02T09:29:37.575Z,28.40
2018-08-02T09:32:07.967Z,28.20
2018-08-02T09:37:32.926Z,27.80
2018-08-02T09:40:02.217Z,28.00
2018-08-02T09:42:31.605Z,28.10
2018-08-02T09:47:47.604Z,28.50
2018-08-02T09:50:17.935Z,28.50
2018-08-02T09:52:46.902Z,28.60
2018-08-02T09:55:17.063Z,28.60
2018-08-02T09:57:45.972Z,28.60
2018-08-02T10:02:54.718Z,28.30
2018-08-02T10:05:31.178Z,28.10
2018-08-02T10:08:00.195Z,28.10
2018-08-02T10:10:35.789Z,28.20
2018-08-02T10:13:04.653Z,28.50
2018-08-02T10:15:34.008Z,28.70
2018-08-02T10:18:05.579Z,28.90
2018-08-02T10:20:39.398Z,29.10
2018-08-02T10:23:08.358Z,29.40
2018-08-02T10:25:38.077Z,29.60
2018-08-02T10:28:07.033Z,29.50
2018-08-02T10:30:36.905Z,29.50
2018-08-02T10:35:54.661Z,29.40
2018-08-02T10:38:24.099Z,29.30
2018-08-02T10:40:52.937Z,29.20
2018-08-02T10:43:22.000Z,29.50
2018-08-02T10:45:51.074Z,29.70
2018-08-02T10:53:54.673Z,29.70
2018-08-02T10:56:27.874Z,29.70
2018-08-02T11:04:28.167Z,29.80
2018-08-02T11:06:57.205Z,29.80
2018-08-02T11:11:59.289Z,30.00
2018-08-02T11:14:28.380Z,30.00
2018-08-02T11:19:43.745Z,30.20
2018-08-02T11:22:12.818Z,30.40
2018-08-02T11:24:42.916Z,30.40
2018-08-02T11:29:58.924Z,30.50
2018-08-02T11:32:28.749Z,30.70
2018-08-02T11:37:45.384Z,30.80
2018-08-02T11:40:14.844Z,30.80
2018-08-02T11:45:31.611Z,31.10
2018-08-02T11:48:00.668Z,31.20
2018-08-02T11:53:16.267Z,31.40
2018-08-02T11:55:45.331Z,31.70
2018-08-02T12:01:02.079Z,32.00
2018-08-02T12:06:00.801Z,32.50
2018-08-02T12:08:30.615Z,32.70
2018-08-02T12:11:00.611Z,32.70
2018-08-02T12:13:34.010Z,32.80
2018-08-02T12:16:03.516Z,32.80
2018-08-02T12:21:34.568Z,33.20
2018-08-02T12:24:04.109Z,33.20
2018-08-02T12:31:57.426Z,33.10
2018-08-02T12:36:54.973Z,33.40
2018-08-02T12:42:06.864Z,33.40
2018-08-02T12:44:35.830Z,33.40
2018-08-02T12:49:55.163Z,33.50
2018-08-02T12:52:24.293Z,33.80
2018-08-02T12:57:39.818Z,34.00
2018-08-02T13:00:08.880Z,33.80
2018-08-02T13:05:24.291Z,34.00
2018-08-02T13:07:53.629Z,34.30
2018-08-02T13:13:09.228Z,35.00
2018-08-02T13:15:38.286Z,35.30
2018-08-02T13:20:55.188Z,35.50
2018-08-02T13:23:24.525Z,35.80
2018-08-02T13:28:43.297Z,35.80
2018-08-02T13:31:12.230Z,35.80
2018-08-02T13:33:41.429Z,35.50
2018-08-02T13:36:10.454Z,35.60
2018-08-02T13:38:39.400Z,35.80
2018-08-02T13:41:16.247Z,36.20
2018-08-02T13:43:45.097Z,36.40
2018-08-02T13:46:14.488Z,36.60
2018-08-02T13:48:43.720Z,37.00
2018-08-02T13:51:12.670Z,37.00
2018-08-02T13:56:29.172Z,37.20
2018-08-02T13:58:58.243Z,37.40
2018-08-02T14:04:13.416Z,37.80
2018-08-02T14:06:42.788Z,37.90
2018-08-02T14:11:58.944Z,38.10
2018-08-02T14:14:45.446Z,38.30
2018-08-02T14:17:14.295Z,38.40
2018-08-02T14:19:49.455Z,38.30
2018-08-02T14:22:20.773Z,38.40
2018-08-02T14:24:49.625Z,38.50
2018-08-02T14:27:19.642Z,38.70
2018-08-02T14:29:49.303Z,38.80
2018-08-02T14:32:18.079Z,38.70
2018-08-02T14:34:46.988Z,38.20
2018-08-02T14:37:15.654Z,38.10
2018-08-02T14:42:14.833Z,38.20
2018-08-02T14:44:43.590Z,38.30
2018-08-02T14:47:12.304Z,38.30
2018-08-02T14:49:46.198Z,38.20
2018-08-02T14:52:14.935Z,38.30
2018-08-02T14:54:43.934Z,36.20
2018-08-02T14:57:17.445Z,38.50
2018-08-02T14:59:46.260Z,38.50
2018-08-02T15:02:14.986Z,38.70
2018-08-02T15:04:43.736Z,38.70
2018-08-02T15:07:12.483Z,38.50
2018-08-02T15:09:41.691Z,38.50
2018-08-02T15:12:16.385Z,38.60
2018-08-02T15:14:45.517Z,38.30
2018-08-02T15:19:42.712Z,37.60
2018-08-02T15:29:37.358Z,37.00
2018-08-02T15:46:57.222Z,37.00
2018-08-02T15:51:54.351Z,36.40
2018-08-02T16:14:48.040Z,36.50
2018-08-02T16:17:16.699Z,36.50
2018-08-02T16:19:45.382Z,36.40
2018-08-02T16:27:32.899Z,36.30
2018-08-02T16:35:03.583Z,36.40
2018-08-02T16:40:17.676Z,36.30
2018-08-02T16:42:48.456Z,35.90
2018-08-02T17:03:12.524Z,35.60
2018-08-02T17:05:49.995Z,35.40
2018-08-02T17:08:18.979Z,35.40
2018-08-02T17:10:47.830Z,35.50
2018-08-02T17:15:45.419Z,35.30
2018-08-02T17:18:14.250Z,35.40
2018-08-02T17:36:43.447Z,35.20
2018-08-02T17:39:13.457Z,35.10
